Time;durP1;ratioP1;P1;durP2;ratioP2;P2;SDS_P1;SDS_P2;PMS_P1;PMS_P2;Temp;Humidity;BMP_temperature;BMP_pressure;BME280_temperature;BME280_humidity;BME280_pressure;Samples;Min_cycle;Max_cycle;Signal;HPM_P1;HPM_P2
2023/07/11 00:00:18;;;;;;;61.17;59.17;;;18.00;99.90;;;;;;4983545;28;20528;-86
2023/07/11 00:02:45;;;;;;;68.97;66.23;;;18.00;99.90;;;;;;4969767;28;20216;-86
2023/07/11 00:05:13;;;;;;;69.57;67.33;;;18.00;99.90;;;;;;4984758;28;20541;-85
2023/07/11 00:07:39;;;;;;;64.23;62.13;;;18.00;99.90;;;;;;4989799;28;20197;-85
2023/07/11 00:10:06;;;;;;;69.87;67.67;;;18.10;99.90;;;;;;4968204;28;20192;-86
2023/07/11 00:12:32;;;;;;;67.97;65.47;;;18.10;99.90;;;;;;4968759;28;20239;-85
2023/07/11 00:14:58;;;;;;;66.53;64.33;;;18.10;99.90;;;;;;4941076;28;20282;-86
2023/07/11 00:17:24;;;;;;;65.33;63.03;;;18.00;99.90;;;;;;4951492;28;20685;-85
2023/07/11 00:19:52;;;;;;;70.50;68.27;;;18.10;99.90;;;;;;4936635;28;20695;-85
2023/07/11 00:22:18;;;;;;;59.33;57.33;;;18.00;99.90;;;;;;4984634;28;20580;-85
2023/07/11 00:24:45;;;;;;;65.40;63.27;;;18.00;99.90;;;;;;4967217;28;20219;-85
2023/07/11 00:27:12;;;;;;;55.23;53.23;;;18.00;99.90;;;;;;4971740;28;20285;-85
2023/07/11 00:29:38;;;;;;;62.83;60.73;;;17.90;99.90;;;;;;4985023;28;20259;-85
2023/07/11 00:32:04;;;;;;;60.30;58.10;;;17.80;99.90;;;;;;4951949;28;20223;-85
2023/07/11 00:34:30;;;;;;;62.13;59.70;;;17.80;99.90;;;;;;4968585;28;20198;-85
2023/07/11 00:36:56;;;;;;;57.37;55.43;;;17.70;99.90;;;;;;4988962;28;20219;-85
2023/07/11 00:39:22;;;;;;;65.63;63.43;;;17.60;99.90;;;;;;4968959;28;20483;-86
2023/07/11 00:41:48;;;;;;;72.57;70.17;;;17.60;99.90;;;;;;4960988;28;20683;-86
2023/07/11 00:44:16;;;;;;;53.87;52.17;;;17.50;99.90;;;;;;4981389;28;20224;-85
2023/07/11 00:46:42;;;;;;;65.30;63.03;;;17.50;99.90;;;;;;4986110;28;20892;-86
2023/07/11 00:49:10;;;;;;;68.30;65.90;;;17.50;99.90;;;;;;4969126;28;20676;-86
2023/07/11 00:51:41;;;;;;;73.47;71.17;;;17.50;99.90;;;;;;4969610;28;20255;-85
2023/07/11 00:54:10;;;;;;;64.13;62.13;;;17.60;99.90;;;;;;4972979;28;20224;-84
2023/07/11 00:56:45;;;;;;;60.03;57.83;;;17.70;99.90;;;;;;4969886;28;20277;-86
2023/07/11 00:59:12;;;;;;;65.97;63.87;;;17.80;99.90;;;;;;4968700;28;20223;-85
2023/07/11 01:01:38;;;;;;;81.83;79.23;;;17.80;99.90;;;;;;4968115;28;20523;-85
2023/07/11 01:04:07;;;;;;;68.43;65.97;;;17.90;99.90;;;;;;4970430;28;20192;-85
2023/07/11 01:06:36;;;;;;;64.13;62.00;;;17.80;99.90;;;;;;4968303;28;20298;-85
2023/07/11 01:09:04;;;;;;;49.73;48.13;;;17.80;99.90;;;;;;4981507;28;20319;-85
2023/07/11 01:11:32;;;;;;;63.40;61.40;;;17.80;99.90;;;;;;4968652;28;20217;-86
2023/07/11 01:13:58;;;;;;;62.73;60.67;;;17.80;99.90;;;;;;4969771;28;20220;-86
2023/07/11 01:16:24;;;;;;;59.50;57.40;;;17.90;99.90;;;;;;4970054;28;20847;-86
2023/07/11 01:18:50;;;;;;;57.17;55.37;;;17.90;99.90;;;;;;4967314;28;20222;-85
2023/07/11 01:21:20;;;;;;;62.13;60.03;;;18.00;99.90;;;;;;4980828;28;20231;-86
2023/07/11 01:23:46;;;;;;;58.27;56.30;;;17.90;99.90;;;;;;4975473;28;20247;-86
2023/07/11 01:26:12;;;;;;;60.07;57.87;;;17.90;99.90;;;;;;4969838;28;20467;-86
2023/07/11 01:28:41;;;;;;;63.90;61.80;;;17.90;99.90;;;;;;4989645;28;20624;-85
2023/07/11 01:31:07;;;;;;;55.83;53.93;;;17.90;99.90;;;;;;4968753;28;20535;-86
2023/07/11 01:33:34;;;;;;;55.10;53.17;;;18.00;99.90;;;;;;4964888;28;20282;-85
2023/07/11 01:36:02;;;;;;;60.73;58.50;;;18.00;99.90;;;;;;4964589;28;20219;-85
2023/07/11 01:38:28;;;;;;;50.33;48.40;;;18.00;99.90;;;;;;4979882;28;20223;-85
2023/07/11 01:40:53;;;;;;;52.17;50.47;;;18.10;99.90;;;;;;4968699;28;20216;-85
2023/07/11 01:43:20;;;;;;;49.13;47.47;;;18.00;99.90;;;;;;4986408;28;20607;-85
2023/07/11 01:45:46;;;;;;;54.50;52.50;;;18.00;99.90;;;;;;4987269;28;20219;-86
2023/07/11 01:48:11;;;;;;;46.37;44.77;;;18.00;99.90;;;;;;4987631;28;20226;-85
2023/07/11 01:50:38;;;;;;;53.93;52.03;;;18.00;99.90;;;;;;4987656;28;20233;-85
2023/07/11 01:53:04;;;;;;;56.93;55.03;;;18.00;99.90;;;;;;4967757;28;20629;-85
2023/07/11 01:55:29;;;;;;;58.27;56.27;;;18.00;99.90;;;;;;4987936;28;20218;-85
2023/07/11 01:57:55;;;;;;;50.77;49.07;;;18.10;99.90;;;;;;5004682;28;20313;-86
2023/07/11 02:00:21;;;;;;;48.10;46.30;;;18.00;99.90;;;;;;4998759;28;20338;-85
2023/07/11 02:02:47;;;;;;;46.13;44.60;;;18.00;99.90;;;;;;4984893;28;20282;-86
2023/07/11 02:05:16;;;;;;;48.90;47.20;;;18.00;99.90;;;;;;4952298;28;21113;-86
2023/07/11 02:07:42;;;;;;;49.17;47.43;;;18.00;99.90;;;;;;4966823;28;20199;-86
2023/07/11 02:10:08;;;;;;;52.63;50.40;;;18.00;99.90;;;;;;4953501;28;20200;-86
2023/07/11 02:12:34;;;;;;;50.90;49.03;;;17.90;99.90;;;;;;4982612;28;20681;-85
2023/07/11 02:15:00;;;;;;;52.83;51.03;;;17.90;99.90;;;;;;4983681;28;20227;-86
2023/07/11 02:17:26;;;;;;;59.03;57.13;;;17.70;99.90;;;;;;4987406;28;20239;-86
2023/07/11 02:19:51;;;;;;;63.60;61.23;;;17.50;99.90;;;;;;4966949;28;20208;-86
2023/07/11 02:22:17;;;;;;;61.57;58.93;;;17.40;99.90;;;;;;4967687;28;20243;-86
2023/07/11 02:24:43;;;;;;;62.03;59.90;;;17.20;99.90;;;;;;4984637;28;20618;-86
2023/07/11 02:27:09;;;;;;;78.47;75.97;;;17.10;99.90;;;;;;4985367;28;20227;-86
2023/07/11 02:29:35;;;;;;;78.40;75.73;;;16.90;99.90;;;;;;4984403;28;20455;-86
2023/07/11 02:32:01;;;;;;;78.50;75.60;;;16.80;99.90;;;;;;5001976;28;20311;-86
2023/07/11 02:34:26;;;;;;;72.30;69.63;;;16.70;99.90;;;;;;4984154;28;20198;-86
2023/07/11 02:36:52;;;;;;;79.03;76.43;;;16.80;99.90;;;;;;4984745;28;20632;-86
2023/07/11 02:39:18;;;;;;;67.47;65.17;;;16.80;99.90;;;;;;5020959;28;20663;-86
2023/07/11 02:41:44;;;;;;;70.20;67.67;;;16.90;99.90;;;;;;5001369;28;20248;-86
2023/07/11 02:44:09;;;;;;;69.97;67.70;;;16.90;99.90;;;;;;4981314;28;20228;-86
2023/07/11 02:46:36;;;;;;;78.07;75.43;;;17.00;99.90;;;;;;4988024;28;20235;-85
2023/07/11 02:49:02;;;;;;;63.97;61.87;;;17.00;99.90;;;;;;5001630;28;20504;-86
2023/07/11 02:51:28;;;;;;;72.97;70.27;;;17.10;99.90;;;;;;5001783;28;20774;-86
2023/07/11 02:53:54;;;;;;;69.47;67.17;;;17.10;99.90;;;;;;5004689;28;20233;-86
2023/07/11 02:56:20;;;;;;;82.30;79.63;;;17.20;99.90;;;;;;4987891;28;20719;-85
2023/07/11 02:58:47;;;;;;;84.20;81.57;;;17.10;99.90;;;;;;4984814;28;20282;-85
2023/07/11 03:01:13;;;;;;;98.80;95.33;;;17.20;99.90;;;;;;5003544;28;20854;-85
2023/07/11 03:03:39;;;;;;;93.43;90.50;;;17.20;99.90;;;;;;5003937;28;20677;-85
2023/07/11 03:06:05;;;;;;;103.67;100.43;;;17.30;99.90;;;;;;5002444;28;20225;-86
2023/07/11 03:08:32;;;;;;;109.87;106.47;;;17.30;99.90;;;;;;5002316;28;20217;-85
2023/07/11 03:11:00;;;;;;;93.83;90.83;;;17.20;99.90;;;;;;5006005;28;20227;-85
2023/07/11 03:13:36;;;;;;;129.93;125.80;;;17.00;99.90;;;;;;4988367;28;20180;-86
2023/07/11 03:16:03;;;;;;;124.30;120.13;;;16.90;99.90;;;;;;5002918;28;20206;-85
2023/07/11 03:18:29;;;;;;;78.47;75.93;;;16.90;99.90;;;;;;5006344;28;20626;-85
2023/07/11 03:20:58;;;;;;;86.00;83.20;;;16.90;99.90;;;;;;4999484;28;20215;-85
2023/07/11 03:23:24;;;;;;;83.33;80.53;;;17.00;99.90;;;;;;5002975;28;20691;-85
2023/07/11 03:25:50;;;;;;;80.60;77.80;;;17.00;99.90;;;;;;5002424;28;20605;-85
2023/07/11 03:28:18;;;;;;;91.77;88.60;;;17.10;99.90;;;;;;5000999;28;20192;-85
2023/07/11 03:30:43;;;;;;;107.43;103.83;;;17.20;99.90;;;;;;4969313;28;20249;-84
2023/07/11 03:33:09;;;;;;;92.80;89.47;;;17.10;99.90;;;;;;4980489;28;20242;-85
2023/07/11 03:35:35;;;;;;;99.90;96.47;;;17.10;99.90;;;;;;4987921;28;20214;-84
2023/07/11 03:38:01;;;;;;;99.73;96.13;;;17.10;99.90;;;;;;4985511;28;20673;-85
2023/07/11 03:40:28;;;;;;;92.40;88.83;;;17.10;99.90;;;;;;4987897;28;20306;-85
2023/07/11 03:42:54;;;;;;;90.83;87.53;;;17.10;99.90;;;;;;4988382;28;20795;-84
2023/07/11 03:45:20;;;;;;;104.73;101.33;;;17.20;99.90;;;;;;4983837;28;20219;-85
2023/07/11 03:47:49;;;;;;;98.40;94.73;;;17.20;99.90;;;;;;4994646;28;20235;-85
2023/07/11 03:50:15;;;;;;;103.13;99.83;;;17.20;99.90;;;;;;5005825;28;20693;-85
2023/07/11 03:52:40;;;;;;;113.03;109.30;;;17.20;99.90;;;;;;4986989;28;20184;-84
2023/07/11 03:55:07;;;;;;;91.93;88.80;;;17.30;99.90;;;;;;4990801;28;20238;-85
2023/07/11 03:57:33;;;;;;;106.07;102.13;;;17.30;99.90;;;;;;5003043;28;20223;-85
2023/07/11 03:59:59;;;;;;;91.47;88.53;;;17.30;99.90;;;;;;5006839;28;20230;-85
2023/07/11 04:02:24;;;;;;;84.87;81.73;;;17.40;99.90;;;;;;5002169;28;20223;-85
2023/07/11 04:04:50;;;;;;;89.83;86.50;;;17.40;99.90;;;;;;4990009;28;20659;-85
2023/07/11 04:07:16;;;;;;;108.93;105.33;;;17.40;99.90;;;;;;5035172;28;20188;-85
2023/07/11 04:09:42;;;;;;;81.43;78.53;;;17.40;99.90;;;;;;5003068;28;20314;-85
2023/07/11 04:12:09;;;;;;;87.50;84.27;;;17.40;99.90;;;;;;5005542;28;20250;-85
2023/07/11 04:14:35;;;;;;;103.90;100.47;;;17.50;99.90;;;;;;5005993;28;20305;-85
2023/07/11 04:17:00;;;;;;;105.90;102.30;;;17.50;99.90;;;;;;5004893;28;20325;-85
2023/07/11 04:19:26;;;;;;;106.50;103.07;;;17.50;99.90;;;;;;5003119;28;20191;-85
2023/07/11 04:21:52;;;;;;;94.40;91.40;;;17.50;99.90;;;;;;4983112;28;20684;-85
2023/07/11 04:24:17;;;;;;;111.07;107.63;;;17.50;99.90;;;;;;4971254;28;20910;-85
2023/07/11 04:26:43;;;;;;;107.23;103.87;;;17.50;99.90;;;;;;4967130;28;20235;-85
2023/07/11 04:29:09;;;;;;;105.47;102.17;;;17.50;99.90;;;;;;4968370;28;20259;-85
2023/07/11 04:31:35;;;;;;;117.33;113.43;;;17.40;99.90;;;;;;4966800;28;20278;-85
2023/07/11 04:34:00;;;;;;;85.40;82.70;;;17.40;99.90;;;;;;4953381;28;20220;-85
2023/07/11 04:36:27;;;;;;;102.30;98.97;;;17.40;99.90;;;;;;4947547;28;20239;-85
2023/07/11 04:38:53;;;;;;;100.63;97.23;;;17.40;99.90;;;;;;4978364;28;20220;-86
2023/07/11 04:41:18;;;;;;;105.57;102.03;;;17.40;99.90;;;;;;4970740;28;20933;-85
2023/07/11 04:43:44;;;;;;;94.77;91.60;;;17.50;99.90;;;;;;4949897;28;20180;-85
2023/07/11 04:46:10;;;;;;;109.93;106.33;;;17.40;99.90;;;;;;4969100;28;20552;-86
2023/07/11 04:48:36;;;;;;;104.77;101.43;;;17.40;99.90;;;;;;4965663;28;20551;-86
2023/07/11 04:51:04;;;;;;;117.90;114.07;;;17.50;99.90;;;;;;4981314;28;20578;-86
2023/07/11 04:53:31;;;;;;;117.67;113.70;;;17.50;99.90;;;;;;4965333;28;20267;-85
2023/07/11 04:56:03;;;;;;;99.83;96.73;;;17.50;99.90;;;;;;4962767;28;20358;-85
2023/07/11 04:58:30;;;;;;;107.30;103.57;;;17.60;99.90;;;;;;4983555;28;20234;-85
2023/07/11 05:01:02;;;;;;;97.73;94.60;;;17.60;99.90;;;;;;4963456;28;20286;-85
2023/07/11 05:03:29;;;;;;;82.27;79.57;;;17.70;99.90;;;;;;4959897;28;20576;-85
2023/07/11 05:05:55;;;;;;;85.93;82.80;;;17.70;99.90;;;;;;4946728;28;20258;-85
2023/07/11 05:08:21;;;;;;;96.23;93.13;;;17.80;99.90;;;;;;4932784;28;20461;-85
2023/07/11 05:11:01;;;;;;;96.27;93.07;;;17.90;99.90;;;;;;4964559;28;20279;-84
2023/07/11 05:13:27;;;;;;;84.80;81.90;;;17.90;99.90;;;;;;4963934;28;20247;-85
2023/07/11 05:16:04;;;;;;;96.03;92.83;;;18.00;99.90;;;;;;4963893;28;20598;-85
2023/07/11 05:18:30;;;;;;;103.97;100.53;;;18.00;99.90;;;;;;4946660;28;20225;-85
2023/07/11 05:20:57;;;;;;;123.73;119.83;;;18.00;99.90;;;;;;4952518;28;20696;-85
2023/07/11 05:23:29;;;;;;;83.67;80.80;;;18.10;99.90;;;;;;4960665;28;20322;-85
2023/07/11 05:25:56;;;;;;;110.00;106.50;;;18.10;99.90;;;;;;4984537;28;20683;-86
2023/07/11 05:28:25;;;;;;;125.77;121.57;;;18.10;99.90;;;;;;4995910;28;20219;-87
2023/07/11 05:30:52;;;;;;;128.57;124.53;;;18.20;99.90;;;;;;4987859;28;20218;-88
2023/07/11 05:33:21;;;;;;;118.40;114.50;;;18.20;99.90;;;;;;5009305;28;20218;-90
2023/07/11 05:36:33;;;;;;;129.73;125.53;;;18.30;99.90;;;;;;5008495;28;20211;-90
2023/07/11 05:39:10;;;;;;;113.53;109.70;;;18.80;99.90;;;;;;5001621;28;20238;-88
2023/07/11 05:41:37;;;;;;;149.63;144.47;;;19.10;99.90;;;;;;5004113;28;20231;-89
2023/07/11 05:44:04;;;;;;;114.33;110.40;;;19.10;99.90;;;;;;5008142;28;20210;-90
2023/07/11 05:46:30;;;;;;;137.47;133.17;;;19.20;99.90;;;;;;5012424;28;20192;-87
2023/07/11 05:48:57;;;;;;;155.43;150.27;;;19.30;99.90;;;;;;5005077;28;20247;-87
2023/07/11 05:51:23;;;;;;;135.10;130.73;;;19.30;99.90;;;;;;4987461;28;20227;-86
2023/07/11 05:53:50;;;;;;;151.03;146.10;;;19.30;99.90;;;;;;4990449;28;20238;-90
2023/07/11 05:56:19;;;;;;;132.50;128.13;;;19.30;99.90;;;;;;4994092;28;20223;-89
2023/07/11 05:58:47;;;;;;;140.83;136.17;;;19.50;99.90;;;;;;5007330;28;20665;-85
2023/07/11 06:01:20;;;;;;;146.40;141.57;;;19.60;99.90;;;;;;5005970;28;20214;-87
2023/07/11 06:03:48;;;;;;;151.47;146.53;;;19.60;99.90;;;;;;5005224;28;20215;-87
2023/07/11 06:06:14;;;;;;;217.77;210.33;;;19.60;99.90;;;;;;5006504;28;20281;-88
2023/07/11 06:08:41;;;;;;;173.13;167.50;;;19.60;99.90;;;;;;5002310;28;20298;-87
2023/07/11 06:11:08;;;;;;;158.40;153.37;;;20.00;99.90;;;;;;5000175;28;20232;-87
2023/07/11 06:13:37;;;;;;;144.93;140.00;;;20.40;99.90;;;;;;5024021;28;20182;-87
2023/07/11 06:16:06;;;;;;;185.30;179.50;;;21.00;99.90;;;;;;4987141;28;20246;-87
2023/07/11 06:18:37;;;;;;;129.30;124.50;;;21.10;99.90;;;;;;5004335;28;20203;-88
2023/07/11 06:21:07;;;;;;;136.53;132.10;;;21.60;99.90;;;;;;5005761;28;20246;-88
2023/07/11 06:23:39;;;;;;;141.50;136.90;;;22.80;99.90;;;;;;5016770;28;20245;-90
2023/07/11 06:26:05;;;;;;;118.70;114.87;;;23.70;99.90;;;;;;5009470;28;20878;-88
2023/07/11 06:28:31;;;;;;;113.90;110.13;;;23.20;99.90;;;;;;5005512;28;20276;-88
2023/07/11 06:31:00;;;;;;;103.17;99.53;;;22.80;99.90;;;;;;5007034;28;20684;-88
2023/07/11 06:33:26;;;;;;;114.18;110.47;;;23.50;99.90;;;;;;4987452;28;20226;-88
2023/07/11 06:35:54;;;;;;;118.80;114.90;;;23.80;99.90;;;;;;5009986;28;20218;-88
2023/07/11 06:38:23;;;;;;;135.48;130.98;;;23.80;99.90;;;;;;5005271;28;20211;-88
2023/07/11 06:40:51;;;;;;;119.32;115.63;;;23.10;99.90;;;;;;5005388;28;20290;-88
2023/07/11 06:43:17;;;;;;;120.95;117.07;;;22.70;99.90;;;;;;5001401;28;20183;-88
2023/07/11 06:45:48;;;;;;;125.97;121.88;;;22.60;99.90;;;;;;5003848;28;20211;-86
2023/07/11 06:48:15;;;;;;;132.30;127.80;;;22.20;99.90;;;;;;5007005;28;20238;-87
2023/07/11 06:50:41;;;;;;;132.75;128.35;;;22.00;99.90;;;;;;5005810;28;20223;-86
2023/07/11 06:53:07;;;;;;;118.82;114.90;;;22.00;99.90;;;;;;5006977;28;20313;-87
2023/07/11 06:55:38;;;;;;;121.95;118.07;;;21.90;99.90;;;;;;5001649;28;20703;-88
2023/07/11 06:58:04;;;;;;;132.23;127.97;;;21.90;99.90;;;;;;4957650;28;20219;-87
2023/07/11 07:00:30;;;;;;;116.50;112.43;;;21.90;99.90;;;;;;5005151;28;20237;-85
2023/07/11 07:02:56;;;;;;;122.68;118.55;;;21.90;99.90;;;;;;5002935;28;20215;-87
2023/07/11 07:05:21;;;;;;;124.32;120.22;;;22.20;99.90;;;;;;4992459;28;20268;-85
2023/07/11 07:07:47;;;;;;;114.60;110.60;;;22.70;99.90;;;;;;5015900;28;20198;-86
2023/07/11 07:10:13;;;;;;;115.83;111.93;;;23.20;99.90;;;;;;4992461;28;20261;-86
2023/07/11 07:12:39;;;;;;;129.05;124.70;;;23.30;99.90;;;;;;5009252;28;20311;-85
2023/07/11 07:15:05;;;;;;;120.35;116.15;;;23.10;99.90;;;;;;5009096;28;20306;-85
2023/07/11 07:17:31;;;;;;;119.13;115.07;;;23.00;99.90;;;;;;5004848;28;20219;-85
2023/07/11 07:19:56;;;;;;;135.77;131.27;;;22.70;99.90;;;;;;4976428;28;20227;-85
2023/07/11 07:22:22;;;;;;;124.68;120.05;;;22.50;99.90;;;;;;4992920;28;20237;-86
2023/07/11 07:24:51;;;;;;;118.70;114.72;;;22.50;99.90;;;;;;4991418;28;20580;-85
2023/07/11 07:27:17;;;;;;;126.47;122.30;;;22.40;99.90;;;;;;4962905;28;20219;-86
2023/07/11 07:29:43;;;;;;;122.80;118.63;;;22.80;99.90;;;;;;4982265;28;20302;-86
2023/07/11 07:32:09;;;;;;;124.65;120.57;;;23.40;99.90;;;;;;4988527;28;20730;-86
2023/07/11 07:34:35;;;;;;;138.32;133.80;;;24.30;99.90;;;;;;4972504;28;20195;-82
2023/07/11 07:37:01;;;;;;;136.85;132.07;;;24.70;99.90;;;;;;4969245;28;20196;-86
2023/07/11 07:39:26;;;;;;;142.20;137.60;;;24.80;99.90;;;;;;4966759;28;20299;-87
2023/07/11 07:41:52;;;;;;;133.52;129.30;;;24.70;99.90;;;;;;4953830;28;20216;-86
2023/07/11 07:44:18;;;;;;;142.60;138.07;;;24.40;99.90;;;;;;4968098;28;20234;-85
2023/07/11 07:46:44;;;;;;;158.23;152.68;;;25.10;99.90;;;;;;4989996;28;20541;-87
2023/07/11 07:49:10;;;;;;;134.38;130.13;;;25.90;99.90;;;;;;4936674;28;20279;-86
2023/07/11 07:51:35;;;;;;;130.45;126.25;;;26.40;99.90;;;;;;4964360;28;20274;-86
2023/07/11 07:54:01;;;;;;;126.90;122.70;;;26.30;99.90;;;;;;5001520;28;20223;-86
2023/07/11 07:56:28;;;;;;;123.70;119.60;;;26.00;99.90;;;;;;4967738;28;20325;-86
2023/07/11 07:58:54;;;;;;;117.15;113.18;;;25.70;99.90;;;;;;5001718;28;20191;-86
2023/07/11 08:01:21;;;;;;;113.20;109.60;;;25.30;99.90;;;;;;5002038;28;20211;-86
2023/07/11 08:03:46;;;;;;;115.90;112.18;;;25.20;99.90;;;;;;4983728;28;20259;-86
2023/07/11 08:06:15;;;;;;;113.63;109.53;;;25.10;99.90;;;;;;4983850;28;20604;-85
2023/07/11 08:08:41;;;;;;;116.93;113.13;;;24.90;99.90;;;;;;4984417;28;20242;-86
2023/07/11 08:11:08;;;;;;;108.13;104.53;;;24.60;99.90;;;;;;4999476;28;20231;-87
2023/07/11 08:13:34;;;;;;;110.35;106.45;;;24.60;99.90;;;;;;4955308;28;20267;-87
2023/07/11 08:16:01;;;;;;;116.40;112.60;;;24.40;99.90;;;;;;4984553;28;20222;-86
2023/07/11 08:18:28;;;;;;;118.97;114.97;;;24.30;99.90;;;;;;4968861;28;20224;-86
2023/07/11 08:20:54;;;;;;;114.20;110.28;;;24.40;99.90;;;;;;4994695;28;20586;-85
2023/07/11 08:23:23;;;;;;;111.72;107.93;;;24.80;99.90;;;;;;5002905;28;20223;-86
2023/07/11 08:25:55;;;;;;;106.32;102.75;;;25.10;99.90;;;;;;5000484;28;20187;-87
2023/07/11 08:28:21;;;;;;;112.85;109.22;;;25.20;99.90;;;;;;4983760;28;20211;-87
2023/07/11 08:30:48;;;;;;;109.05;105.55;;;25.20;99.90;;;;;;4985174;28;20219;-87
2023/07/11 08:33:14;;;;;;;107.40;103.90;;;25.20;99.90;;;;;;4980194;28;20685;-87
2023/07/11 08:35:40;;;;;;;111.63;107.82;;;25.70;99.90;;;;;;5002491;28;20301;-87
2023/07/11 08:38:11;;;;;;;111.78;107.90;;;26.30;99.90;;;;;;5001232;28;20269;-86
2023/07/11 08:40:46;;;;;;;114.50;110.40;;;26.90;99.90;;;;;;4984632;28;20238;-87
2023/07/11 08:43:28;;;;;;;105.18;101.80;;;28.50;99.90;;;;;;4990064;28;20233;-86
2023/07/11 08:46:06;;;;;;;99.68;96.38;;;28.80;99.90;;;;;;4983342;28;20253;-87
2023/07/11 08:48:50;;;;;;;81.80;79.00;;;28.50;99.90;;;;;;4984693;28;20242;-87
2023/07/11 08:51:26;;;;;;;88.22;84.95;;;27.70;99.90;;;;;;4951793;28;20266;-87
2023/07/11 08:54:20;;;;;;;81.65;78.88;;;27.80;99.90;;;;;;4981140;28;20231;-87
2023/07/11 08:56:48;;;;;;;77.90;75.00;;;27.90;99.90;;;;;;4953263;28;20253;-87
2023/07/11 08:59:17;;;;;;;67.03;64.60;;;28.40;99.90;;;;;;4980619;28;20227;-87
2023/07/11 09:02:02;;;;;;;57.22;55.22;;;29.30;99.90;;;;;;4961839;28;20218;-87
2023/07/11 09:04:30;;;;;;;49.53;47.58;;;30.00;99.90;;;;;;4981236;28;20184;-87
2023/07/11 09:07:06;;;;;;;43.85;42.20;;;30.60;99.90;;;;;;4980526;28;20223;-88
2023/07/11 09:09:35;;;;;;;53.00;51.00;;;30.90;99.90;;;;;;4981710;28;20245;-90
2023/07/11 09:12:07;;;;;;;38.08;36.50;;;30.70;99.90;;;;;;4981701;28;20223;-88
2023/07/11 09:14:41;;;;;;;38.53;37.05;;;30.70;99.90;;;;;;4981310;28;20308;-88
2023/07/11 09:17:14;;;;;;;38.78;37.17;;;29.90;99.90;;;;;;4979912;28;20231;-87
2023/07/11 09:20:04;;;;;;;41.25;39.42;;;29.30;99.90;;;;;;4980448;28;20184;-87
2023/07/11 09:22:41;;;;;;;88.88;85.97;;;29.50;99.90;;;;;;4954377;28;20664;-87
2023/07/11 09:25:34;;;;;;;46.53;44.95;;;29.40;99.90;;;;;;4997723;28;20214;-87
2023/07/11 09:28:27;;;;;;;42.08;40.25;;;29.20;99.90;;;;;;5004664;28;20223;-87
2023/07/11 09:30:57;;;;;;;45.15;43.40;;;29.30;99.90;;;;;;5024154;28;20741;-88
2023/07/11 09:33:31;;;;;;;37.60;36.17;;;29.60;99.90;;;;;;5009931;28;20644;-88
2023/07/11 09:35:58;;;;;;;39.28;37.67;;;30.80;99.90;;;;;;5006521;28;20735;-87
2023/07/11 09:38:35;;;;;;;40.88;39.25;;;30.70;99.90;;;;;;4989750;28;20234;-88
2023/07/11 09:41:23;;;;;;;33.13;31.65;;;30.30;99.90;;;;;;5007289;28;20261;-87
2023/07/11 09:43:48;;;;;;;30.00;28.67;;;31.30;99.90;;;;;;5008117;28;20241;-88
2023/07/11 09:46:20;;;;;;;53.05;51.10;;;31.20;99.90;;;;;;4989368;28;20590;-88
2023/07/11 09:48:50;;;;;;;45.42;43.78;;;31.40;99.90;;;;;;5007592;28;20219;-88
2023/07/11 09:51:41;;;;;;;27.98;26.98;;;31.40;99.90;;;;;;5002432;28;20337;-89
2023/07/11 09:54:24;;;;;;;29.88;28.67;;;31.80;99.90;;;;;;5008440;28;20294;-89
2023/07/11 09:57:09;;;;;;;55.30;52.95;;;30.10;99.90;;;;;;4992866;28;20227;-88
2023/07/11 09:59:34;;;;;;;28.23;27.13;;;29.40;99.90;;;;;;4979535;28;20219;-88
2023/07/11 10:02:03;;;;;;;29.90;28.67;;;29.80;99.90;;;;;;4981203;28;20572;-88
2023/07/11 10:04:30;;;;;;;28.98;27.67;;;30.40;99.90;;;;;;4981630;28;20269;-88
2023/07/11 10:07:11;;;;;;;31.35;30.15;;;30.80;99.90;;;;;;4995337;28;20741;-89
2023/07/11 10:09:45;;;;;;;31.33;30.00;;;30.80;99.90;;;;;;5001552;28;20221;-90
2023/07/11 10:12:22;;;;;;;33.88;32.38;;;30.70;99.90;;;;;;5017891;28;20225;-85
2023/07/11 10:15:00;;;;;;;84.90;81.35;;;30.80;99.90;;;;;;5011501;28;20217;-87
2023/07/11 10:17:33;;;;;;;30.73;29.23;;;30.50;99.90;;;;;;5030042;28;20214;-86
2023/07/11 10:20:02;;;;;;;35.63;34.42;;;30.20;99.90;;;;;;5003087;28;20318;-85
2023/07/11 10:22:30;;;;;;;32.78;31.38;;;29.80;99.90;;;;;;5004216;28;20280;-86
2023/07/11 10:25:04;;;;;;;30.35;28.95;;;30.30;99.90;;;;;;4965035;28;20243;-85
2023/07/11 10:27:34;;;;;;;29.85;28.75;;;31.20;99.90;;;;;;4980888;28;20215;-85
2023/07/11 10:30:03;;;;;;;26.90;25.80;;;30.40;99.90;;;;;;4997594;28;20253;-86
2023/07/11 10:32:44;;;;;;;29.33;28.23;;;30.10;99.90;;;;;;4978344;28;20472;-85
2023/07/11 10:35:14;;;;;;;48.78;46.92;;;29.80;99.90;;;;;;4984754;28;20788;-86
2023/07/11 10:37:58;;;;;;;27.73;26.40;;;30.00;99.90;;;;;;4979296;28;20660;-86
2023/07/11 10:40:29;;;;;;;26.63;25.15;;;30.40;99.90;;;;;;5000880;28;20191;-86
2023/07/11 10:43:27;;;;;;;26.20;25.20;;;30.10;99.90;;;;;;4981255;28;20299;-86
2023/07/11 10:46:04;;;;;;;26.15;25.25;;;30.00;99.90;;;;;;4965096;28;20216;-85
2023/07/11 10:48:32;;;;;;;26.67;25.15;;;29.50;99.90;;;;;;4969626;28;20680;-86
2023/07/11 10:51:14;;;;;;;39.30;37.72;;;29.70;99.90;;;;;;4980291;28;20224;-86
2023/07/11 10:53:47;;;;;;;40.33;38.90;;;29.30;99.90;;;;;;4982187;28;20216;-85
2023/07/11 10:56:19;;;;;;;33.10;31.80;;;28.70;99.90;;;;;;4989297;28;20232;-85
2023/07/11 10:58:46;;;;;;;31.67;30.30;;;28.70;99.90;;;;;;4965773;28;20230;-86
2023/07/11 11:01:43;;;;;;;32.85;31.50;;;28.90;99.90;;;;;;4964366;28;20256;-86
2023/07/11 11:04:33;;;;;;;34.67;33.47;;;29.70;99.90;;;;;;4967317;28;20223;-86
2023/07/11 11:07:01;;;;;;;36.35;34.65;;;30.00;99.90;;;;;;4999038;28;20211;-86
2023/07/11 11:09:45;;;;;;;32.38;31.17;;;28.80;99.90;;;;;;4987300;28;20688;-86
2023/07/11 11:12:42;;;;;;;35.63;34.50;;;27.90;99.90;;;;;;4970210;28;20278;-87
2023/07/11 11:15:13;;;;;;;39.08;37.78;;;27.30;99.90;;;;;;4984601;28;20677;-87
2023/07/11 11:18:17;;;;;;;41.28;39.60;;;27.50;99.90;;;;;;4963844;28;20232;-87
2023/07/11 11:20:43;;;;;;;41.17;39.45;;;28.00;99.90;;;;;;4981714;28;20235;-87
2023/07/11 11:23:51;;;;;;;50.05;48.30;;;28.60;99.90;;;;;;4993139;28;20231;-87
2023/07/11 11:26:49;;;;;;;47.30;45.60;;;28.50;99.90;;;;;;4989472;28;20645;-86
2023/07/11 11:29:34;;;;;;;54.13;51.72;;;28.10;99.90;;;;;;5019356;28;20566;-86
2023/07/11 11:32:31;;;;;;;43.72;42.13;;;28.20;99.90;;;;;;4999773;28;20345;-86
2023/07/11 11:35:03;;;;;;;45.85;44.15;;;28.00;99.90;;;;;;4985153;28;20234;-85
2023/07/11 11:37:36;;;;;;;46.70;45.00;;;28.00;99.90;;;;;;5001321;28;20655;-85
2023/07/11 11:40:11;;;;;;;50.03;48.00;;;28.10;99.90;;;;;;5000669;28;20237;-87
2023/07/11 11:42:41;;;;;;;48.65;46.92;;;27.90;99.90;;;;;;5003902;28;20306;-85
2023/07/11 11:45:17;;;;;;;75.50;72.70;;;27.90;99.90;;;;;;5005790;28;20327;-86
2023/07/11 11:47:44;;;;;;;50.80;48.97;;;27.70;99.90;;;;;;5003249;28;20231;-86
2023/07/11 11:50:20;;;;;;;65.63;63.40;;;27.50;99.90;;;;;;4986752;28;20309;-85
2023/07/11 11:52:53;;;;;;;59.53;57.30;;;27.40;99.90;;;;;;5002245;28;20652;-85
2023/07/11 11:55:25;;;;;;;54.30;52.30;;;27.30;99.90;;;;;;5005095;28;20187;-85
2023/07/11 11:57:51;;;;;;;55.15;53.13;;;27.40;99.90;;;;;;5006978;28;20250;-86
2023/07/11 12:00:40;;;;;;;55.45;53.60;;;27.50;99.90;;;;;;5005135;28;20277;-86
2023/07/11 12:03:20;;;;;;;58.90;56.85;;;27.60;99.90;;;;;;5004541;28;20241;-85
2023/07/11 12:05:51;;;;;;;59.97;57.95;;;27.80;99.90;;;;;;5004826;28;20218;-85
2023/07/11 12:08:23;;;;;;;58.45;56.50;;;28.10;99.90;;;;;;5002759;28;20222;-86
2023/07/11 12:11:06;;;;;;;57.53;55.65;;;28.10;99.90;;;;;;5008544;28;20194;-85
2023/07/11 12:13:42;;;;;;;57.65;55.70;;;28.10;99.90;;;;;;5018890;28;20274;-86
2023/07/11 12:16:32;;;;;;;59.80;57.78;;;27.80;99.90;;;;;;4987806;28;20215;-86
2023/07/11 12:19:02;;;;;;;56.92;55.05;;;27.70;99.90;;;;;;5004479;28;20226;-85
2023/07/11 12:21:33;;;;;;;55.50;53.60;;;27.70;99.90;;;;;;5007156;28;20708;-87
2023/07/11 12:24:18;;;;;;;54.67;52.67;;;27.50;99.90;;;;;;5007132;28;20305;-86
2023/07/11 12:26:44;;;;;;;60.70;58.60;;;27.40;99.90;;;;;;5033892;28;20234;-86
2023/07/11 12:29:50;;;;;;;86.50;83.57;;;27.20;99.90;;;;;;4975478;28;20227;-87
2023/07/11 12:32:39;;;;;;;59.17;57.17;;;27.20;99.90;;;;;;4990421;28;20310;-86
2023/07/11 12:35:04;;;;;;;69.57;66.93;;;26.80;99.90;;;;;;5005055;28;20226;-86